sensor_id;sensor_type;location;lat;lon;timestamp;temperature;humidity
22540;DHT22;11436;50.860;4.334;2022-09-21T00:00:33;12.80;99.90
22540;DHT22;11436;50.860;4.334;2022-09-21T00:02:59;12.70;99.90
22540;DHT22;11436;50.860;4.334;2022-09-21T00:05:25;12.60;99.90
22540;DHT22;11436;50.860;4.334;2022-09-21T00:07:51;12.70;99.90
22540;DHT22;11436;50.860;4.334;2022-09-21T00:10:18;12.60;99.90
22540;DHT22;11436;50.860;4.334;2022-09-21T00:12:45;12.60;99.90
22540;DHT22;11436;50.860;4.334;2022-09-21T00:15:13;12.70;99.90
22540;DHT22;11436;50.860;4.334;2022-09-21T00:17:42;12.70;99.90
22540;DHT22;11436;50.860;4.334;2022-09-21T00:20:08;12.70;99.90
22540;DHT22;11436;50.860;4.334;2022-09-21T00:22:34;12.50;99.90
22540;DHT22;11436;50.860;4.334;2022-09-21T00:25:01;12.50;99.90
22540;DHT22;11436;50.860;4.334;2022-09-21T00:27:28;12.40;99.90
22540;DHT22;11436;50.860;4.334;2022-09-21T00:29:58;12.40;99.90
22540;DHT22;11436;50.860;4.334;2022-09-21T00:32:29;12.30;99.90
22540;DHT22;11436;50.860;4.334;2022-09-21T00:34:59;12.20;99.90
22540;DHT22;11436;50.860;4.334;2022-09-21T00:37:26;12.10;99.90
22540;DHT22;11436;50.860;4.334;2022-09-21T00:39:52;12.00;99.90
22540;DHT22;11436;50.860;4.334;2022-09-21T00:42:27;11.90;99.90
22540;DHT22;11436;50.860;4.334;2022-09-21T00:44:53;11.80;99.90
22540;DHT22;11436;50.860;4.334;2022-09-21T00:47:43;11.70;99.90
22540;DHT22;11436;50.860;4.334;2022-09-21T00:50:13;11.70;99.90
22540;DHT22;11436;50.860;4.334;2022-09-21T00:52:48;11.70;99.90
22540;DHT22;11436;50.860;4.334;2022-09-21T00:57:43;11.70;99.90
22540;DHT22;11436;50.860;4.334;2022-09-21T01:00:11;11.80;99.90
22540;DHT22;11436;50.860;4.334;2022-09-21T01:02:37;11.80;99.90
22540;DHT22;11436;50.860;4.334;2022-09-21T01:05:05;11.90;99.90
22540;DHT22;11436;50.860;4.334;2022-09-21T01:07:34;11.90;99.90
22540;DHT22;11436;50.860;4.334;2022-09-21T01:10:05;11.90;99.90
22540;DHT22;11436;50.860;4.334;2022-09-21T01:17:50;11.80;99.90
22540;DHT22;11436;50.860;4.334;2022-09-21T01:23:23;11.90;99.90
22540;DHT22;11436;50.860;4.334;2022-09-21T01:31:15;11.70;99.90
22540;DHT22;11436;50.860;4.334;2022-09-21T01:33:48;11.80;99.90
22540;DHT22;11436;50.860;4.334;2022-09-21T01:36:21;11.70;99.90
22540;DHT22;11436;50.860;4.334;2022-09-21T01:38:53;11.80;99.90
22540;DHT22;11436;50.860;4.334;2022-09-21T01:41:22;11.80;99.90
22540;DHT22;11436;50.860;4.334;2022-09-21T01:43:56;11.80;99.90
22540;DHT22;11436;50.860;4.334;2022-09-21T01:46:27;11.80;99.90
22540;DHT22;11436;50.860;4.334;2022-09-21T01:49:13;11.60;99.90
22540;DHT22;11436;50.860;4.334;2022-09-21T01:51:47;11.60;99.90
22540;DHT22;11436;50.860;4.334;2022-09-21T01:54:21;11.60;99.90
22540;DHT22;11436;50.860;4.334;2022-09-21T01:57:01;11.70;99.90
22540;DHT22;11436;50.860;4.334;2022-09-21T01:59:41;11.80;99.90
22540;DHT22;11436;50.860;4.334;2022-09-21T02:02:18;11.90;99.90
22540;DHT22;11436;50.860;4.334;2022-09-21T02:04:46;11.80;99.90
22540;DHT22;11436;50.860;4.334;2022-09-21T02:07:15;11.80;99.90
22540;DHT22;11436;50.860;4.334;2022-09-21T02:09:41;11.80;99.90
22540;DHT22;11436;50.860;4.334;2022-09-21T02:12:07;11.80;99.90
22540;DHT22;11436;50.860;4.334;2022-09-21T02:14:35;11.90;99.90
22540;DHT22;11436;50.860;4.334;2022-09-21T02:22:32;11.70;99.90
22540;DHT22;11436;50.860;4.334;2022-09-21T02:25:11;11.80;99.90
22540;DHT22;11436;50.860;4.334;2022-09-21T02:30:44;11.60;99.90
22540;DHT22;11436;50.860;4.334;2022-09-21T02:33:23;11.70;99.90
22540;DHT22;11436;50.860;4.334;2022-09-21T02:36:10;11.70;99.90
22540;DHT22;11436;50.860;4.334;2022-09-21T02:38:46;11.70;99.90
22540;DHT22;11436;50.860;4.334;2022-09-21T02:41:26;11.60;99.90
22540;DHT22;11436;50.860;4.334;2022-09-21T02:44:13;11.60;99.90
22540;DHT22;11436;50.860;4.334;2022-09-21T02:46:49;11.60;99.90
22540;DHT22;11436;50.860;4.334;2022-09-21T02:49:22;11.60;99.90
22540;DHT22;11436;50.860;4.334;2022-09-21T02:51:53;11.50;99.90
22540;DHT22;11436;50.860;4.334;2022-09-21T02:54:24;11.50;99.90
22540;DHT22;11436;50.860;4.334;2022-09-21T02:56:52;11.70;99.90
22540;DHT22;11436;50.860;4.334;2022-09-21T02:59:18;11.60;99.90
22540;DHT22;11436;50.860;4.334;2022-09-21T03:01:48;11.60;99.90
22540;DHT22;11436;50.860;4.334;2022-09-21T03:04:15;11.70;99.90
22540;DHT22;11436;50.860;4.334;2022-09-21T03:06:41;11.60;99.90
22540;DHT22;11436;50.860;4.334;2022-09-21T03:09:07;11.60;99.90
22540;DHT22;11436;50.860;4.334;2022-09-21T03:11:33;11.60;99.90
22540;DHT22;11436;50.860;4.334;2022-09-21T03:14:01;11.50;99.90
22540;DHT22;11436;50.860;4.334;2022-09-21T03:16:29;11.40;99.90
22540;DHT22;11436;50.860;4.334;2022-09-21T03:18:55;11.30;99.90
22540;DHT22;11436;50.860;4.334;2022-09-21T03:21:21;11.30;99.90
22540;DHT22;11436;50.860;4.334;2022-09-21T03:23:47;11.20;99.90
22540;DHT22;11436;50.860;4.334;2022-09-21T03:26:12;11.00;99.90
22540;DHT22;11436;50.860;4.334;2022-09-21T03:28:38;10.90;99.90
22540;DHT22;11436;50.860;4.334;2022-09-21T03:31:04;10.80;99.90
22540;DHT22;11436;50.860;4.334;2022-09-21T03:33:31;10.70;99.90
22540;DHT22;11436;50.860;4.334;2022-09-21T03:35:57;10.60;99.90
22540;DHT22;11436;50.860;4.334;2022-09-21T03:38:22;10.60;99.90
22540;DHT22;11436;50.860;4.334;2022-09-21T03:40:49;10.60;99.90
22540;DHT22;11436;50.860;4.334;2022-09-21T03:43:16;10.50;99.90
22540;DHT22;11436;50.860;4.334;2022-09-21T03:45:42;10.50;99.90
22540;DHT22;11436;50.860;4.334;2022-09-21T03:48:10;10.50;99.90
22540;DHT22;11436;50.860;4.334;2022-09-21T03:50:36;10.50;99.90
22540;DHT22;11436;50.860;4.334;2022-09-21T03:53:02;10.50;99.90
22540;DHT22;11436;50.860;4.334;2022-09-21T03:55:28;10.50;99.90
22540;DHT22;11436;50.860;4.334;2022-09-21T03:57:54;10.50;99.90
22540;DHT22;11436;50.860;4.334;2022-09-21T04:00:20;10.50;99.90
22540;DHT22;11436;50.860;4.334;2022-09-21T04:02:46;10.60;99.90
22540;DHT22;11436;50.860;4.334;2022-09-21T04:05:14;10.60;99.90
22540;DHT22;11436;50.860;4.334;2022-09-21T04:07:41;10.70;99.90
22540;DHT22;11436;50.860;4.334;2022-09-21T04:10:10;10.70;99.90
22540;DHT22;11436;50.860;4.334;2022-09-21T04:12:40;10.60;99.90
22540;DHT22;11436;50.860;4.334;2022-09-21T04:15:16;10.50;99.90
22540;DHT22;11436;50.860;4.334;2022-09-21T04:17:49;10.50;99.90
22540;DHT22;11436;50.860;4.334;2022-09-21T04:20:15;10.50;99.90
22540;DHT22;11436;50.860;4.334;2022-09-21T04:22:41;10.50;99.90
22540;DHT22;11436;50.860;4.334;2022-09-21T04:25:08;10.40;99.90
22540;DHT22;11436;50.860;4.334;2022-09-21T04:27:34;10.40;99.90
22540;DHT22;11436;50.860;4.334;2022-09-21T04:30:00;10.40;99.90
22540;DHT22;11436;50.860;4.334;2022-09-21T04:32:25;10.30;99.90
22540;DHT22;11436;50.860;4.334;2022-09-21T04:34:51;10.30;99.90
22540;DHT22;11436;50.860;4.334;2022-09-21T04:37:17;10.30;99.90
22540;DHT22;11436;50.860;4.334;2022-09-21T04:39:43;10.30;99.90
22540;DHT22;11436;50.860;4.334;2022-09-21T04:42:09;10.40;99.90
22540;DHT22;11436;50.860;4.334;2022-09-21T04:44:35;10.40;99.90
22540;DHT22;11436;50.860;4.334;2022-09-21T04:47:00;10.30;99.90
22540;DHT22;11436;50.860;4.334;2022-09-21T04:49:26;10.30;99.90
22540;DHT22;11436;50.860;4.334;2022-09-21T04:51:52;10.40;99.90
22540;DHT22;11436;50.860;4.334;2022-09-21T04:54:18;10.30;99.90
22540;DHT22;11436;50.860;4.334;2022-09-21T04:56:43;10.30;99.90
22540;DHT22;11436;50.860;4.334;2022-09-21T04:59:09;10.40;99.90
22540;DHT22;11436;50.860;4.334;2022-09-21T05:01:35;10.30;99.90
22540;DHT22;11436;50.860;4.334;2022-09-21T05:04:01;10.30;99.90
22540;DHT22;11436;50.860;4.334;2022-09-21T05:06:28;10.40;99.90
22540;DHT22;11436;50.860;4.334;2022-09-21T05:08:54;10.30;99.90
22540;DHT22;11436;50.860;4.334;2022-09-21T05:11:39;10.30;99.90
22540;DHT22;11436;50.860;4.334;2022-09-21T05:14:05;10.30;99.90
22540;DHT22;11436;50.860;4.334;2022-09-21T05:16:31;10.30;99.90
22540;DHT22;11436;50.860;4.334;2022-09-21T05:18:57;10.30;99.90
22540;DHT22;11436;50.860;4.334;2022-09-21T05:21:23;10.20;99.90
22540;DHT22;11436;50.860;4.334;2022-09-21T05:23:49;10.30;99.90
22540;DHT22;11436;50.860;4.334;2022-09-21T05:26:14;10.30;99.90
22540;DHT22;11436;50.860;4.334;2022-09-21T05:28:40;10.20;99.90
22540;DHT22;11436;50.860;4.334;2022-09-21T05:31:34;10.20;99.90
22540;DHT22;11436;50.860;4.334;2022-09-21T05:34:20;10.10;99.90
22540;DHT22;11436;50.860;4.334;2022-09-21T05:39:30;10.10;99.90
22540;DHT22;11436;50.860;4.334;2022-09-21T05:41:56;10.30;99.90
22540;DHT22;11436;50.860;4.334;2022-09-21T05:44:22;10.50;99.90
22540;DHT22;11436;50.860;4.334;2022-09-21T05:47:01;10.60;99.90
22540;DHT22;11436;50.860;4.334;2022-09-21T05:55:10;10.60;99.90
22540;DHT22;11436;50.860;4.334;2022-09-21T06:00:20;10.60;99.90
22540;DHT22;11436;50.860;4.334;2022-09-21T06:05:37;10.70;99.90
22540;DHT22;11436;50.860;4.334;2022-09-21T06:08:03;10.70;99.90
22540;DHT22;11436;50.860;4.334;2022-09-21T06:10:32;10.70;99.90
22540;DHT22;11436;50.860;4.334;2022-09-21T06:12:58;10.70;99.90
22540;DHT22;11436;50.860;4.334;2022-09-21T06:15:24;10.60;99.90
22540;DHT22;11436;50.860;4.334;2022-09-21T06:17:50;10.60;99.90
22540;DHT22;11436;50.860;4.334;2022-09-21T06:20:16;10.60;99.90
22540;DHT22;11436;50.860;4.334;2022-09-21T06:22:41;10.60;99.90
22540;DHT22;11436;50.860;4.334;2022-09-21T06:25:07;10.60;99.90
22540;DHT22;11436;50.860;4.334;2022-09-21T06:27:33;10.60;99.90
22540;DHT22;11436;50.860;4.334;2022-09-21T06:29:58;10.70;99.90
22540;DHT22;11436;50.860;4.334;2022-09-21T06:32:24;10.70;99.90
22540;DHT22;11436;50.860;4.334;2022-09-21T06:34:50;10.70;99.90
22540;DHT22;11436;50.860;4.334;2022-09-21T06:37:15;10.90;99.90
22540;DHT22;11436;50.860;4.334;2022-09-21T06:39:41;11.00;99.90
22540;DHT22;11436;50.860;4.334;2022-09-21T06:42:07;11.00;99.90
22540;DHT22;11436;50.860;4.334;2022-09-21T06:44:32;11.00;99.90
22540;DHT22;11436;50.860;4.334;2022-09-21T06:46:58;11.10;99.90
22540;DHT22;11436;50.860;4.334;2022-09-21T06:49:24;11.20;99.90
22540;DHT22;11436;50.860;4.334;2022-09-21T06:51:53;11.40;99.90
22540;DHT22;11436;50.860;4.334;2022-09-21T06:54:19;11.60;99.90
22540;DHT22;11436;50.860;4.334;2022-09-21T06:56:44;11.70;99.90
22540;DHT22;11436;50.860;4.334;2022-09-21T06:59:10;11.70;99.90
22540;DHT22;11436;50.860;4.334;2022-09-21T07:01:36;11.60;99.90
22540;DHT22;11436;50.860;4.334;2022-09-21T07:04:02;11.50;99.90
22540;DHT22;11436;50.860;4.334;2022-09-21T07:06:27;11.60;99.90
22540;DHT22;11436;50.860;4.334;2022-09-21T07:08:54;11.70;99.90
22540;DHT22;11436;50.860;4.334;2022-09-21T07:11:23;11.60;99.90
22540;DHT22;11436;50.860;4.334;2022-09-21T07:13:49;11.60;99.90
22540;DHT22;11436;50.860;4.334;2022-09-21T07:16:15;11.70;99.90
22540;DHT22;11436;50.860;4.334;2022-09-21T07:18:41;11.70;99.90
22540;DHT22;11436;50.860;4.334;2022-09-21T07:21:09;11.80;99.90
22540;DHT22;11436;50.860;4.334;2022-09-21T07:23:35;11.90;99.90
22540;DHT22;11436;50.860;4.334;2022-09-21T07:26:03;12.00;99.90
22540;DHT22;11436;50.860;4.334;2022-09-21T07:28:29;12.00;99.90
22540;DHT22;11436;50.860;4.334;2022-09-21T07:30:56;12.10;99.90
22540;DHT22;11436;50.860;4.334;2022-09-21T07:33:23;12.30;99.90
22540;DHT22;11436;50.860;4.334;2022-09-21T07:35:53;12.40;99.90
22540;DHT22;11436;50.860;4.334;2022-09-21T07:38:21;12.30;99.90
22540;DHT22;11436;50.860;4.334;2022-09-21T07:40:47;12.40;99.90
22540;DHT22;11436;50.860;4.334;2022-09-21T07:43:13;12.40;99.90
22540;DHT22;11436;50.860;4.334;2022-09-21T07:45:39;12.50;99.90
22540;DHT22;11436;50.860;4.334;2022-09-21T07:48:05;12.50;99.90
22540;DHT22;11436;50.860;4.334;2022-09-21T07:50:32;12.60;99.90
22540;DHT22;11436;50.860;4.334;2022-09-21T07:53:01;12.50;99.90
22540;DHT22;11436;50.860;4.334;2022-09-21T07:55:27;12.40;99.90
22540;DHT22;11436;50.860;4.334;2022-09-21T07:57:53;12.40;99.90
22540;DHT22;11436;50.860;4.334;2022-09-21T08:00:37;12.50;99.90
22540;DHT22;11436;50.860;4.334;2022-09-21T08:03:04;12.50;99.90
22540;DHT22;11436;50.860;4.334;2022-09-21T08:05:31;12.60;99.90
22540;DHT22;11436;50.860;4.334;2022-09-21T08:07:57;12.60;99.90
22540;DHT22;11436;50.860;4.334;2022-09-21T08:10:24;12.60;99.90
22540;DHT22;11436;50.860;4.334;2022-09-21T08:12:52;12.80;99.90
22540;DHT22;11436;50.860;4.334;2022-09-21T08:15:18;12.90;99.90
22540;DHT22;11436;50.860;4.334;2022-09-21T08:17:44;12.90;99.90
22540;DHT22;11436;50.860;4.334;2022-09-21T08:20:10;13.00;99.90
22540;DHT22;11436;50.860;4.334;2022-09-21T08:22:35;13.00;99.90
22540;DHT22;11436;50.860;4.334;2022-09-21T08:25:02;13.10;99.90
22540;DHT22;11436;50.860;4.334;2022-09-21T08:27:29;13.20;99.90
22540;DHT22;11436;50.860;4.334;2022-09-21T08:29:54;13.40;99.90
22540;DHT22;11436;50.860;4.334;2022-09-21T08:32:20;13.40;99.90
22540;DHT22;11436;50.860;4.334;2022-09-21T08:34:46;13.40;99.90
22540;DHT22;11436;50.860;4.334;2022-09-21T08:37:12;13.30;99.90
22540;DHT22;11436;50.860;4.334;2022-09-21T08:39:37;13.40;99.90
22540;DHT22;11436;50.860;4.334;2022-09-21T08:45:08;13.50;99.90
22540;DHT22;11436;50.860;4.334;2022-09-21T08:53:02;13.90;99.90
22540;DHT22;11436;50.860;4.334;2022-09-21T08:55:29;14.10;99.90
22540;DHT22;11436;50.860;4.334;2022-09-21T08:57:55;14.00;99.90
22540;DHT22;11436;50.860;4.334;2022-09-21T09:00:21;14.00;99.90
22540;DHT22;11436;50.860;4.334;2022-09-21T09:03:11;14.10;99.90
22540;DHT22;11436;50.860;4.334;2022-09-21T09:14:06;14.40;99.90
22540;DHT22;11436;50.860;4.334;2022-09-21T09:16:49;14.30;99.90
22540;DHT22;11436;50.860;4.334;2022-09-21T09:19:34;14.30;99.90
22540;DHT22;11436;50.860;4.334;2022-09-21T09:22:05;14.40;99.90
22540;DHT22;11436;50.860;4.334;2022-09-21T09:24:45;14.40;99.90
22540;DHT22;11436;50.860;4.334;2022-09-21T09:27:38;14.40;99.90
22540;DHT22;11436;50.860;4.334;2022-09-21T09:30:12;14.40;99.90
22540;DHT22;11436;50.860;4.334;2022-09-21T09:33:15;14.50;99.90
22540;DHT22;11436;50.860;4.334;2022-09-21T09:36:01;14.50;99.90
22540;DHT22;11436;50.860;4.334;2022-09-21T09:41:33;14.50;99.90
22540;DHT22;11436;50.860;4.334;2022-09-21T09:50:11;14.80;99.90
22540;DHT22;11436;50.860;4.334;2022-09-21T09:52:38;15.00;99.90
22540;DHT22;11436;50.860;4.334;2022-09-21T09:55:21;15.00;99.90
22540;DHT22;11436;50.860;4.334;2022-09-21T09:57:49;14.90;99.90
22540;DHT22;11436;50.860;4.334;2022-09-21T10:00:17;14.80;99.90
22540;DHT22;11436;50.860;4.334;2022-09-21T10:02:51;14.70;99.90
22540;DHT22;11436;50.860;4.334;2022-09-21T10:05:38;14.80;99.90
22540;DHT22;11436;50.860;4.334;2022-09-21T10:08:04;14.80;99.90
22540;DHT22;11436;50.860;4.334;2022-09-21T10:10:36;14.80;99.90
22540;DHT22;11436;50.860;4.334;2022-09-21T10:13:26;15.00;99.90
22540;DHT22;11436;50.860;4.334;2022-09-21T10:16:21;15.00;99.90
22540;DHT22;11436;50.860;4.334;2022-09-21T10:18:48;15.20;99.90
22540;DHT22;11436;50.860;4.334;2022-09-21T10:21:20;15.60;99.90
22540;DHT22;11436;50.860;4.334;2022-09-21T10:23:58;16.00;99.90
22540;DHT22;11436;50.860;4.334;2022-09-21T10:26:51;16.00;99.90
22540;DHT22;11436;50.860;4.334;2022-09-21T10:32:02;15.80;99.90
22540;DHT22;11436;50.860;4.334;2022-09-21T10:34:30;15.50;99.90
22540;DHT22;11436;50.860;4.334;2022-09-21T10:36:58;15.40;99.90
22540;DHT22;11436;50.860;4.334;2022-09-21T10:39:29;15.40;99.90
22540;DHT22;11436;50.860;4.334;2022-09-21T10:44:32;15.70;99.90
22540;DHT22;11436;50.860;4.334;2022-09-21T10:47:03;15.80;99.90
22540;DHT22;11436;50.860;4.334;2022-09-21T10:50:01;15.70;99.90
22540;DHT22;11436;50.860;4.334;2022-09-21T10:52:41;15.80;99.90
22540;DHT22;11436;50.860;4.334;2022-09-21T10:55:18;15.90;99.90
22540;DHT22;11436;50.860;4.334;2022-09-21T10:57:46;16.00;99.90
22540;DHT22;11436;50.860;4.334;2022-09-21T11:00:26;16.30;99.90
22540;DHT22;11436;50.860;4.334;2022-09-21T11:03:02;16.60;99.90
22540;DHT22;11436;50.860;4.334;2022-09-21T11:05:37;16.80;99.90
22540;DHT22;11436;50.860;4.334;2022-09-21T11:08:17;16.90;99.90
22540;DHT22;11436;50.860;4.334;2022-09-21T11:14:04;17.10;99.90
22540;DHT22;11436;50.860;4.334;2022-09-21T11:19:43;16.60;99.90
22540;DHT22;11436;50.860;4.334;2022-09-21T11:22:42;16.80;99.90
22540;DHT22;11436;50.860;4.334;2022-09-21T11:27:40;16.60;99.90
22540;DHT22;11436;50.860;4.334;2022-09-21T11:30:11;16.80;99.90
22540;DHT22;11436;50.860;4.334;2022-09-21T11:38:50;16.70;99.90
22540;DHT22;11436;50.860;4.334;2022-09-21T11:41:44;17.00;99.90
22540;DHT22;11436;50.860;4.334;2022-09-21T11:52:15;16.80;99.90
22540;DHT22;11436;50.860;4.334;2022-09-21T11:57:55;16.60;99.90
22540;DHT22;11436;50.860;4.334;2022-09-21T12:00:23;16.60;99.90
22540;DHT22;11436;50.860;4.334;2022-09-21T12:21:40;19.00;99.90
22540;DHT22;11436;50.860;4.334;2022-09-21T12:24:20;19.00;99.90
22540;DHT22;11436;50.860;4.334;2022-09-21T12:26:51;19.20;99.90
22540;DHT22;11436;50.860;4.334;2022-09-21T12:29:32;19.40;99.90
22540;DHT22;11436;50.860;4.334;2022-09-21T12:32:21;18.90;99.90
22540;DHT22;11436;50.860;4.334;2022-09-21T12:34:56;18.30;99.90
22540;DHT22;11436;50.860;4.334;2022-09-21T12:45:50;21.50;99.90
22540;DHT22;11436;50.860;4.334;2022-09-21T12:48:26;22.60;99.90
22540;DHT22;11436;50.860;4.334;2022-09-21T12:50:56;24.30;99.90
22540;DHT22;11436;50.860;4.334;2022-09-21T12:53:26;25.30;99.90
22540;DHT22;11436;50.860;4.334;2022-09-21T13:01:54;23.50;99.90
22540;DHT22;11436;50.860;4.334;2022-09-21T13:12:51;21.50;99.90
22540;DHT22;11436;50.860;4.334;2022-09-21T13:15:45;21.30;99.90
22540;DHT22;11436;50.860;4.334;2022-09-21T13:18:38;20.60;99.90
22540;DHT22;11436;50.860;4.334;2022-09-21T13:21:19;20.00;99.90
22540;DHT22;11436;50.860;4.334;2022-09-21T13:24:02;19.90;99.90
22540;DHT22;11436;50.860;4.334;2022-09-21T13:26:31;20.90;99.90
22540;DHT22;11436;50.860;4.334;2022-09-21T13:34:39;23.50;99.90
22540;DHT22;11436;50.860;4.334;2022-09-21T13:37:12;22.60;99.90
22540;DHT22;11436;50.860;4.334;2022-09-21T13:39:43;21.70;99.90
22540;DHT22;11436;50.860;4.334;2022-09-21T13:42:47;21.50;99.90
22540;DHT22;11436;50.860;4.334;2022-09-21T13:47:52;20.80;99.90
22540;DHT22;11436;50.860;4.334;2022-09-21T13:50:26;20.60;99.90
22540;DHT22;11436;50.860;4.334;2022-09-21T13:53:24;20.30;99.90
22540;DHT22;11436;50.860;4.334;2022-09-21T13:56:19;20.10;99.90
22540;DHT22;11436;50.860;4.334;2022-09-21T13:58:49;20.50;99.90
22540;DHT22;11436;50.860;4.334;2022-09-21T14:01:29;20.70;99.90
22540;DHT22;11436;50.860;4.334;2022-09-21T14:03:59;20.80;99.90
22540;DHT22;11436;50.860;4.334;2022-09-21T14:06:33;20.80;99.90
22540;DHT22;11436;50.860;4.334;2022-09-21T14:09:03;20.90;99.90
22540;DHT22;11436;50.860;4.334;2022-09-21T14:11:35;20.70;99.90
22540;DHT22;11436;50.860;4.334;2022-09-21T14:24:42;25.30;99.90
22540;DHT22;11436;50.860;4.334;2022-09-21T14:35:18;27.20;99.90
22540;DHT22;11436;50.860;4.334;2022-09-21T14:37:54;26.30;99.90
22540;DHT22;11436;50.860;4.334;2022-09-21T14:40:24;25.70;99.90
22540;DHT22;11436;50.860;4.334;2022-09-21T14:42:55;25.20;99.90
22540;DHT22;11436;50.860;4.334;2022-09-21T14:51:00;23.30;99.90
22540;DHT22;11436;50.860;4.334;2022-09-21T14:53:56;23.00;99.90
22540;DHT22;11436;50.860;4.334;2022-09-21T14:56:45;22.80;99.90
22540;DHT22;11436;50.860;4.334;2022-09-21T15:02:09;22.40;99.90
22540;DHT22;11436;50.860;4.334;2022-09-21T15:11:26;21.90;99.90
22540;DHT22;11436;50.860;4.334;2022-09-21T15:16:40;23.40;99.90
22540;DHT22;11436;50.860;4.334;2022-09-21T15:24:27;22.90;99.90
22540;DHT22;11436;50.860;4.334;2022-09-21T15:29:32;22.00;99.90
22540;DHT22;11436;50.860;4.334;2022-09-21T15:31:59;21.90;99.90
22540;DHT22;11436;50.860;4.334;2022-09-21T15:34:25;21.90;99.90
22540;DHT22;11436;50.860;4.334;2022-09-21T15:36:52;21.60;99.90
22540;DHT22;11436;50.860;4.334;2022-09-21T15:39:29;21.80;99.90
22540;DHT22;11436;50.860;4.334;2022-09-21T15:42:16;21.50;99.90
22540;DHT22;11436;50.860;4.334;2022-09-21T15:44:45;21.20;99.90
22540;DHT22;11436;50.860;4.334;2022-09-21T15:47:14;20.80;99.90
22540;DHT22;11436;50.860;4.334;2022-09-21T15:49:41;20.20;99.90
22540;DHT22;11436;50.860;4.334;2022-09-21T15:52:22;20.00;99.90
22540;DHT22;11436;50.860;4.334;2022-09-21T15:55:06;19.70;99.90
22540;DHT22;11436;50.860;4.334;2022-09-21T15:57:37;19.60;99.90
22540;DHT22;11436;50.860;4.334;2022-09-21T16:00:34;19.50;99.90
22540;DHT22;11436;50.860;4.334;2022-09-21T16:10:52;19.10;99.90
22540;DHT22;11436;50.860;4.334;2022-09-21T16:13:19;19.10;99.90
22540;DHT22;11436;50.860;4.334;2022-09-21T16:16:12;19.10;99.90
22540;DHT22;11436;50.860;4.334;2022-09-21T16:18:52;19.20;99.90
22540;DHT22;11436;50.860;4.334;2022-09-21T16:21:34;19.10;99.90
22540;DHT22;11436;50.860;4.334;2022-09-21T16:24:20;18.90;99.90
22540;DHT22;11436;50.860;4.334;2022-09-21T16:27:04;18.90;99.90
22540;DHT22;11436;50.860;4.334;2022-09-21T16:29:39;18.90;99.90
22540;DHT22;11436;50.860;4.334;2022-09-21T16:34:48;18.90;99.90
22540;DHT22;11436;50.860;4.334;2022-09-21T16:37:27;19.10;99.90
22540;DHT22;11436;50.860;4.334;2022-09-21T16:39:55;19.30;99.90
22540;DHT22;11436;50.860;4.334;2022-09-21T16:42:26;19.60;99.90
22540;DHT22;11436;50.860;4.334;2022-09-21T16:44:56;19.50;99.90
22540;DHT22;11436;50.860;4.334;2022-09-21T16:47:24;19.30;99.90
22540;DHT22;11436;50.860;4.334;2022-09-21T16:49:55;19.10;99.90
22540;DHT22;11436;50.860;4.334;2022-09-21T16:52:23;19.00;99.90
22540;DHT22;11436;50.860;4.334;2022-09-21T16:54:49;18.90;99.90
22540;DHT22;11436;50.860;4.334;2022-09-21T16:57:17;18.80;99.90
22540;DHT22;11436;50.860;4.334;2022-09-21T16:59:43;18.70;99.90
22540;DHT22;11436;50.860;4.334;2022-09-21T17:02:10;18.60;99.90
22540;DHT22;11436;50.860;4.334;2022-09-21T17:04:38;18.70;99.90
22540;DHT22;11436;50.860;4.334;2022-09-21T17:07:04;18.60;99.90
22540;DHT22;11436;50.860;4.334;2022-09-21T17:09:35;18.70;99.90
22540;DHT22;11436;50.860;4.334;2022-09-21T17:12:08;18.50;99.90
22540;DHT22;11436;50.860;4.334;2022-09-21T17:14:36;18.40;99.90
22540;DHT22;11436;50.860;4.334;2022-09-21T17:19:52;18.40;99.90
22540;DHT22;11436;50.860;4.334;2022-09-21T17:22:18;18.60;99.90
22540;DHT22;11436;50.860;4.334;2022-09-21T17:24:49;18.40;99.90
22540;DHT22;11436;50.860;4.334;2022-09-21T17:27:19;18.40;99.90
22540;DHT22;11436;50.860;4.334;2022-09-21T17:29:46;18.30;99.90
22540;DHT22;11436;50.860;4.334;2022-09-21T17:32:14;18.30;99.90
22540;DHT22;11436;50.860;4.334;2022-09-21T17:34:40;18.40;99.90
22540;DHT22;11436;50.860;4.334;2022-09-21T17:37:07;18.40;99.90
22540;DHT22;11436;50.860;4.334;2022-09-21T17:39:34;18.30;99.90
22540;DHT22;11436;50.860;4.334;2022-09-21T17:42:01;18.10;99.90
22540;DHT22;11436;50.860;4.334;2022-09-21T17:44:50;18.00;99.90
22540;DHT22;11436;50.860;4.334;2022-09-21T17:47:26;17.80;99.90
22540;DHT22;11436;50.860;4.334;2022-09-21T17:52:45;17.60;99.90
22540;DHT22;11436;50.860;4.334;2022-09-21T17:55:29;17.50;99.90
22540;DHT22;11436;50.860;4.334;2022-09-21T18:01:11;17.30;99.90
22540;DHT22;11436;50.860;4.334;2022-09-21T18:03:41;17.30;99.90
22540;DHT22;11436;50.860;4.334;2022-09-21T18:06:08;17.20;99.90
22540;DHT22;11436;50.860;4.334;2022-09-21T18:08:36;17.20;99.90
22540;DHT22;11436;50.860;4.334;2022-09-21T18:13:39;17.00;99.90
22540;DHT22;11436;50.860;4.334;2022-09-21T18:18:58;16.90;99.90
22540;DHT22;11436;50.860;4.334;2022-09-21T18:21:26;16.90;99.90
22540;DHT22;11436;50.860;4.334;2022-09-21T18:26:42;16.80;99.90
22540;DHT22;11436;50.860;4.334;2022-09-21T18:29:22;16.80;99.90
22540;DHT22;11436;50.860;4.334;2022-09-21T18:45:29;16.60;99.90
22540;DHT22;11436;50.860;4.334;2022-09-21T18:53:56;16.50;99.90
22540;DHT22;11436;50.860;4.334;2022-09-21T18:56:24;16.50;99.90
22540;DHT22;11436;50.860;4.334;2022-09-21T18:58:51;16.50;99.90
22540;DHT22;11436;50.860;4.334;2022-09-21T19:01:17;16.50;99.90
22540;DHT22;11436;50.860;4.334;2022-09-21T19:03:47;16.40;99.90
22540;DHT22;11436;50.860;4.334;2022-09-21T19:17:38;16.60;99.90
22540;DHT22;11436;50.860;4.334;2022-09-21T19:28:01;16.40;99.90
22540;DHT22;11436;50.860;4.334;2022-09-21T19:30:27;16.40;99.90
22540;DHT22;11436;50.860;4.334;2022-09-21T19:32:55;16.30;99.90
22540;DHT22;11436;50.860;4.334;2022-09-21T19:35:28;16.20;99.90
22540;DHT22;11436;50.860;4.334;2022-09-21T19:37:56;16.20;99.90
22540;DHT22;11436;50.860;4.334;2022-09-21T19:40:25;16.10;99.90
22540;DHT22;11436;50.860;4.334;2022-09-21T19:45:30;16.00;99.90
22540;DHT22;11436;50.860;4.334;2022-09-21T19:48:03;16.10;99.90
22540;DHT22;11436;50.860;4.334;2022-09-21T19:50:37;16.00;99.90
22540;DHT22;11436;50.860;4.334;2022-09-21T19:53:03;15.90;99.90
22540;DHT22;11436;50.860;4.334;2022-09-21T19:55:47;15.90;99.90
22540;DHT22;11436;50.860;4.334;2022-09-21T19:58:32;16.00;99.90
22540;DHT22;11436;50.860;4.334;2022-09-21T20:01:19;15.80;99.90
22540;DHT22;11436;50.860;4.334;2022-09-21T20:03:46;15.90;99.90
22540;DHT22;11436;50.860;4.334;2022-09-21T20:08:43;15.80;99.90
22540;DHT22;11436;50.860;4.334;2022-09-21T20:11:24;15.70;99.90
22540;DHT22;11436;50.860;4.334;2022-09-21T20:14:27;15.80;99.90
22540;DHT22;11436;50.860;4.334;2022-09-21T20:16:57;15.60;99.90